Time;durP1;ratioP1;P1;durP2;ratioP2;P2;SDS_P1;SDS_P2;PMS_P1;PMS_P2;Temp;Humidity;BMP_temperature;BMP_pressure;BME280_temperature;BME280_humidity;BME280_pressure;Samples;Min_cycle;Max_cycle;Signal;HPM_P1;HPM_P2
2022/04/07 00:00:35;;;;;;;1.7;1.6;;;;;;;8.89;74.4375;93876.31;;;;
2022/04/07 00:01:36;;;;;;;1.7;1.6;;;;;;;8.89;74.4375;93876.31;;;;
2022/04/07 00:02:36;;;;;;;1.7;1.6;;;;;;;8.89;74.4375;93876.31;;;;
2022/04/07 00:03:37;;;;;;;1.7;1.6;;;;;;;8.89;74.4375;93876.31;;;;
2022/04/07 00:04:37;;;;;;;1.7;1.6;;;;;;;8.89;74.4375;93876.31;;;;
2022/04/07 00:05:38;;;;;;;1.7;1.6;;;;;;;8.89;74.4375;93876.31;;;;
2022/04/07 00:06:38;;;;;;;1.7;1.6;;;;;;;8.89;74.4375;93876.31;;;;
2022/04/07 00:07:39;;;;;;;2;1.9;;;;;;;8.83;74.83105;93886.35;;;;
2022/04/07 00:08:39;;;;;;;2;1.9;;;;;;;8.83;74.83105;93886.35;;;;
2022/04/07 00:09:40;;;;;;;2;1.9;;;;;;;8.83;74.83105;93886.35;;;;
2022/04/07 00:10:40;;;;;;;2;1.9;;;;;;;8.83;74.83105;93886.35;;;;
2022/04/07 00:11:41;;;;;;;2;1.9;;;;;;;8.83;74.83105;93886.35;;;;
2022/04/07 00:12:42;;;;;;;2;1.9;;;;;;;8.83;74.83105;93886.35;;;;
2022/04/07 00:13:42;;;;;;;2;1.9;;;;;;;8.83;74.83105;93886.35;;;;
2022/04/07 00:14:43;;;;;;;2;1.9;;;;;;;8.83;74.83105;93886.35;;;;
2022/04/07 00:15:43;;;;;;;2;1.9;;;;;;;8.83;74.83105;93886.35;;;;
2022/04/07 00:16:44;;;;;;;2;1.9;;;;;;;8.83;74.83105;93886.35;;;;
2022/04/07 00:17:45;;;;;;;2;1.9;;;;;;;8.83;74.83105;93886.35;;;;
2022/04/07 00:18:46;;;;;;;1.6;1.5;;;;;;;8.92;75.43359;93882.5;;;;
2022/04/07 00:19:46;;;;;;;1.6;1.5;;;;;;;8.92;75.43359;93882.5;;;;
2022/04/07 00:20:47;;;;;;;1.6;1.5;;;;;;;8.92;75.43359;93882.5;;;;
2022/04/07 00:21:47;;;;;;;1.6;1.5;;;;;;;8.92;75.43359;93882.5;;;;
2022/04/07 00:22:48;;;;;;;1.6;1.5;;;;;;;8.92;75.43359;93882.5;;;;
2022/04/07 00:23:48;;;;;;;1.6;1.5;;;;;;;8.92;75.43359;93882.5;;;;
2022/04/07 00:24:49;;;;;;;1.6;1.5;;;;;;;8.92;75.43359;93882.5;;;;
2022/04/07 00:25:50;;;;;;;1.6;1.5;;;;;;;8.92;75.43359;93882.5;;;;
2022/04/07 00:26:50;;;;;;;1.6;1.5;;;;;;;8.92;75.43359;93882.5;;;;
2022/04/07 00:27:51;;;;;;;1.6;1.5;;;;;;;8.92;75.43359;93882.5;;;;
2022/04/07 00:28:52;;;;;;;1.95;1.75;;;;;;;9.13;75.38379;93879.41;;;;
2022/04/07 00:29:53;;;;;;;1.95;1.75;;;;;;;9.13;75.38379;93879.41;;;;
2022/04/07 00:30:53;;;;;;;1.95;1.75;;;;;;;9.13;75.38379;93879.41;;;;
2022/04/07 00:31:56;;;;;;;1.95;1.75;;;;;;;9.13;75.38379;93879.41;;;;
2022/04/07 00:32:57;;;;;;;1.95;1.75;;;;;;;9.13;75.38379;93879.41;;;;
2022/04/07 00:33:57;;;;;;;1.95;1.75;;;;;;;9.13;75.38379;93879.41;;;;
2022/04/07 00:34:57;;;;;;;1.95;1.75;;;;;;;9.13;75.38379;93879.41;;;;
2022/04/07 00:35:58;;;;;;;1.95;1.75;;;;;;;9.13;75.38379;93879.41;;;;
2022/04/07 00:36:58;;;;;;;1.95;1.75;;;;;;;9.13;75.38379;93879.41;;;;
2022/04/07 00:37:59;;;;;;;1.95;1.75;;;;;;;9.13;75.38379;93879.41;;;;
2022/04/07 00:39:00;;;;;;;1.95;1.75;;;;;;;9.13;75.38379;93879.41;;;;
2022/04/07 00:40:01;;;;;;;2.6;1.6;;;;;;;8.98;75.26172;93871.23;;;;
2022/04/07 00:41:03;;;;;;;2.6;1.6;;;;;;;8.98;75.26172;93871.23;;;;
2022/04/07 00:42:03;;;;;;;2.6;1.6;;;;;;;8.98;75.26172;93871.23;;;;
2022/04/07 00:43:04;;;;;;;2.6;1.6;;;;;;;8.98;75.26172;93871.23;;;;
2022/04/07 00:44:08;;;;;;;2.6;1.6;;;;;;;8.98;75.26172;93871.23;;;;
2022/04/07 00:45:09;;;;;;;2.6;1.6;;;;;;;8.98;75.26172;93871.23;;;;
2022/04/07 00:46:09;;;;;;;2.6;1.6;;;;;;;8.98;75.26172;93871.23;;;;
2022/04/07 00:47:10;;;;;;;2.6;1.6;;;;;;;8.98;75.26172;93871.23;;;;
2022/04/07 00:48:10;;;;;;;2.6;1.6;;;;;;;8.98;75.26172;93871.23;;;;
2022/04/07 00:49:11;;;;;;;2.6;1.6;;;;;;;8.98;75.26172;93871.23;;;;
2022/04/07 00:50:11;;;;;;;2.9;1.55;;;;;;;8.8;75.92383;93870.31;;;;
2022/04/07 00:51:14;;;;;;;2.9;1.55;;;;;;;8.8;75.92383;93870.31;;;;
2022/04/07 00:52:15;;;;;;;2.9;1.55;;;;;;;8.8;75.92383;93870.31;;;;
2022/04/07 00:53:17;;;;;;;2.9;1.55;;;;;;;8.8;75.92383;93870.31;;;;
2022/04/07 00:54:18;;;;;;;2.9;1.55;;;;;;;8.8;75.92383;93870.31;;;;
2022/04/07 00:55:18;;;;;;;2.9;1.55;;;;;;;8.8;75.92383;93870.31;;;;
2022/04/07 00:56:19;;;;;;;2.9;1.55;;;;;;;8.8;75.92383;93870.31;;;;
2022/04/07 00:57:20;;;;;;;2.9;1.55;;;;;;;8.8;75.92383;93870.31;;;;
2022/04/07 00:58:20;;;;;;;2.9;1.55;;;;;;;8.8;75.92383;93870.31;;;;
2022/04/07 00:59:22;;;;;;;2.9;1.55;;;;;;;8.8;75.92383;93870.31;;;;
2022/04/07 01:00:23;;;;;;;2.9;1.55;;;;;;;8.8;75.92383;93870.31;;;;
2022/04/07 01:01:27;;;;;;;1.65;1.55;;;;;;;8.72;76.35742;93838;;;;
2022/04/07 01:02:29;;;;;;;1.65;1.55;;;;;;;8.72;76.35742;93838;;;;
2022/04/07 01:03:30;;;;;;;1.65;1.55;;;;;;;8.72;76.35742;93838;;;;
2022/04/07 01:04:30;;;;;;;1.65;1.55;;;;;;;8.72;76.35742;93838;;;;
2022/04/07 01:05:31;;;;;;;1.65;1.55;;;;;;;8.72;76.35742;93838;;;;
2022/04/07 01:06:32;;;;;;;1.65;1.55;;;;;;;8.72;76.35742;93838;;;;
2022/04/07 01:07:36;;;;;;;1.65;1.55;;;;;;;8.72;76.35742;93838;;;;
2022/04/07 01:08:37;;;;;;;1.65;1.55;;;;;;;8.72;76.35742;93838;;;;
2022/04/07 01:09:38;;;;;;;1.65;1.55;;;;;;;8.72;76.35742;93838;;;;
2022/04/07 01:10:39;;;;;;;1.65;1.55;;;;;;;8.72;76.35742;93838;;;;
2022/04/07 01:11:39;;;;;;;1.7;1.6;;;;;;;8.69;76.6709;93845.37;;;;
2022/04/07 01:12:40;;;;;;;1.7;1.6;;;;;;;8.69;76.6709;93845.37;;;;
2022/04/07 01:13:41;;;;;;;1.7;1.6;;;;;;;8.69;76.6709;93845.37;;;;
2022/04/07 01:14:44;;;;;;;1.7;1.6;;;;;;;8.69;76.6709;93845.37;;;;
2022/04/07 01:16:02;;;;;;;1.7;1.6;;;;;;;8.69;76.6709;93845.37;;;;
2022/04/07 01:17:03;;;;;;;1.7;1.6;;;;;;;8.69;76.6709;93845.37;;;;
2022/04/07 01:18:04;;;;;;;1.7;1.6;;;;;;;8.69;76.6709;93845.37;;;;
2022/04/07 01:19:05;;;;;;;1.7;1.6;;;;;;;8.69;76.6709;93845.37;;;;
2022/04/07 01:20:06;;;;;;;1.7;1.6;;;;;;;8.69;76.6709;93845.37;;;;
2022/04/07 01:21:07;;;;;;;1.7;1.6;;;;;;;8.69;76.6709;93845.37;;;;
2022/04/07 01:22:09;;;;;;;1.8;1.7;;;;;;;8.85;76.84766;93844.39;;;;
2022/04/07 01:23:10;;;;;;;1.8;1.7;;;;;;;8.85;76.84766;93844.39;;;;
2022/04/07 01:24:10;;;;;;;1.8;1.7;;;;;;;8.85;76.84766;93844.39;;;;
2022/04/07 01:25:13;;;;;;;1.8;1.7;;;;;;;8.85;76.84766;93844.39;;;;
2022/04/07 01:26:13;;;;;;;1.8;1.7;;;;;;;8.85;76.84766;93844.39;;;;
2022/04/07 01:27:16;;;;;;;1.8;1.7;;;;;;;8.85;76.84766;93844.39;;;;
2022/04/07 01:28:17;;;;;;;1.8;1.7;;;;;;;8.85;76.84766;93844.39;;;;
2022/04/07 01:29:19;;;;;;;1.8;1.7;;;;;;;8.85;76.84766;93844.39;;;;
2022/04/07 01:30:20;;;;;;;1.8;1.7;;;;;;;8.85;76.84766;93844.39;;;;
2022/04/07 01:31:20;;;;;;;1.8;1.7;;;;;;;8.85;76.84766;93844.39;;;;
2022/04/07 01:32:21;;;;;;;1.8;1.7;;;;;;;8.85;76.84766;93844.39;;;;
2022/04/07 01:33:34;;;;;;;1.9;1.7;;;;;;;9.12;76.72559;93828.92;;;;
2022/04/07 01:34:35;;;;;;;1.9;1.7;;;;;;;9.12;76.72559;93828.92;;;;
2022/04/07 01:35:36;;;;;;;1.9;1.7;;;;;;;9.12;76.72559;93828.92;;;;
2022/04/07 01:36:36;;;;;;;1.9;1.7;;;;;;;9.12;76.72559;93828.92;;;;
2022/04/07 01:37:39;;;;;;;1.9;1.7;;;;;;;9.12;76.72559;93828.92;;;;
2022/04/07 01:38:44;;;;;;;1.9;1.7;;;;;;;9.12;76.72559;93828.92;;;;
2022/04/07 01:39:46;;;;;;;1.9;1.7;;;;;;;9.12;76.72559;93828.92;;;;
2022/04/07 01:40:50;;;;;;;1.9;1.7;;;;;;;9.12;76.72559;93828.92;;;;
2022/04/07 01:41:50;;;;;;;1.9;1.7;;;;;;;9.12;76.72559;93828.92;;;;
2022/04/07 01:42:52;;;;;;;1.9;1.7;;;;;;;9.12;76.72559;93828.92;;;;
2022/04/07 01:43:54;;;;;;;2.25;1.9;;;;;;;9.32;76.57031;93818.63;;;;
2022/04/07 01:44:57;;;;;;;2.25;1.9;;;;;;;9.32;76.57031;93818.63;;;;
2022/04/07 01:46:02;;;;;;;2.25;1.9;;;;;;;9.32;76.57031;93818.63;;;;
2022/04/07 01:47:02;;;;;;;2.25;1.9;;;;;;;9.32;76.57031;93818.63;;;;
2022/04/07 01:48:04;;;;;;;2.25;1.9;;;;;;;9.32;76.57031;93818.63;;;;
2022/04/07 01:49:08;;;;;;;2.25;1.9;;;;;;;9.32;76.57031;93818.63;;;;
2022/04/07 01:50:09;;;;;;;2.25;1.9;;;;;;;9.32;76.57031;93818.63;;;;
2022/04/07 01:51:10;;;;;;;2.25;1.9;;;;;;;9.32;76.57031;93818.63;;;;
2022/04/07 01:52:11;;;;;;;2.25;1.9;;;;;;;9.32;76.57031;93818.63;;;;
2022/04/07 01:53:13;;;;;;;2.25;1.9;;;;;;;9.32;76.57031;93818.63;;;;
2022/04/07 01:54:13;;;;;;;1.95;1.7;;;;;;;9.5;76.59082;93807.37;;;;
2022/04/07 01:55:15;;;;;;;1.95;1.7;;;;;;;9.5;76.59082;93807.37;;;;
2022/04/07 01:56:16;;;;;;;1.95;1.7;;;;;;;9.5;76.59082;93807.37;;;;
2022/04/07 01:57:22;;;;;;;1.95;1.7;;;;;;;9.5;76.59082;93807.37;;;;
2022/04/07 01:58:23;;;;;;;1.95;1.7;;;;;;;9.5;76.59082;93807.37;;;;
2022/04/07 01:59:26;;;;;;;1.95;1.7;;;;;;;9.5;76.59082;93807.37;;;;
2022/04/07 02:00:27;;;;;;;1.95;1.7;;;;;;;9.5;76.59082;93807.37;;;;
2022/04/07 02:01:28;;;;;;;1.95;1.7;;;;;;;9.5;76.59082;93807.37;;;;
2022/04/07 02:02:28;;;;;;;1.95;1.7;;;;;;;9.5;76.59082;93807.37;;;;
2022/04/07 02:03:29;;;;;;;1.95;1.7;;;;;;;9.5;76.59082;93807.37;;;;
2022/04/07 02:04:29;;;;;;;1.95;1.7;;;;;;;9.5;76.59082;93807.37;;;;
2022/04/07 02:05:30;;;;;;;2.3;1.8;;;;;;;9.43;76.88672;93801.95;;;;
2022/04/07 02:06:30;;;;;;;2.3;1.8;;;;;;;9.43;76.88672;93801.95;;;;
2022/04/07 02:07:31;;;;;;;2.3;1.8;;;;;;;9.43;76.88672;93801.95;;;;
2022/04/07 02:08:32;;;;;;;2.3;1.8;;;;;;;9.43;76.88672;93801.95;;;;
2022/04/07 02:09:33;;;;;;;2.3;1.8;;;;;;;9.43;76.88672;93801.95;;;;
2022/04/07 02:10:33;;;;;;;2.3;1.8;;;;;;;9.43;76.88672;93801.95;;;;
2022/04/07 02:11:35;;;;;;;2.3;1.8;;;;;;;9.43;76.88672;93801.95;;;;
2022/04/07 02:12:37;;;;;;;2.3;1.8;;;;;;;9.43;76.88672;93801.95;;;;
2022/04/07 02:13:38;;;;;;;2.3;1.8;;;;;;;9.43;76.88672;93801.95;;;;
2022/04/07 02:14:40;;;;;;;2.3;1.8;;;;;;;9.43;76.88672;93801.95;;;;
2022/04/07 02:15:42;;;;;;;1.9;1.8;;;;;;;9.56;77.20898;93811.3;;;;
2022/04/07 02:16:42;;;;;;;1.9;1.8;;;;;;;9.56;77.20898;93811.3;;;;
2022/04/07 02:17:43;;;;;;;1.9;1.8;;;;;;;9.56;77.20898;93811.3;;;;
2022/04/07 02:18:43;;;;;;;1.9;1.8;;;;;;;9.56;77.20898;93811.3;;;;
2022/04/07 02:19:44;;;;;;;1.9;1.8;;;;;;;9.56;77.20898;93811.3;;;;
2022/04/07 02:20:45;;;;;;;1.9;1.8;;;;;;;9.56;77.20898;93811.3;;;;
2022/04/07 02:21:45;;;;;;;1.9;1.8;;;;;;;9.56;77.20898;93811.3;;;;
2022/04/07 02:22:46;;;;;;;1.9;1.8;;;;;;;9.56;77.20898;93811.3;;;;
2022/04/07 02:23:47;;;;;;;1.9;1.8;;;;;;;9.56;77.20898;93811.3;;;;
2022/04/07 02:24:47;;;;;;;1.9;1.8;;;;;;;9.56;77.20898;93811.3;;;;
2022/04/07 02:25:48;;;;;;;1.9;1.8;;;;;;;9.56;77.20898;93811.3;;;;
2022/04/07 02:26:49;;;;;;;2.1;1.9;;;;;;;9.84;77.08789;93806.77;;;;
2022/04/07 02:27:50;;;;;;;2.1;1.9;;;;;;;9.84;77.08789;93806.77;;;;
2022/04/07 02:28:50;;;;;;;2.1;1.9;;;;;;;9.84;77.08789;93806.77;;;;
2022/04/07 02:29:51;;;;;;;2.1;1.9;;;;;;;9.84;77.08789;93806.77;;;;
2022/04/07 02:30:51;;;;;;;2.1;1.9;;;;;;;9.84;77.08789;93806.77;;;;
2022/04/07 02:31:52;;;;;;;2.1;1.9;;;;;;;9.84;77.08789;93806.77;;;;
2022/04/07 02:32:52;;;;;;;2.1;1.9;;;;;;;9.84;77.08789;93806.77;;;;
2022/04/07 02:33:53;;;;;;;2.1;1.9;;;;;;;9.84;77.08789;93806.77;;;;
2022/04/07 02:34:53;;;;;;;2.1;1.9;;;;;;;9.84;77.08789;93806.77;;;;
2022/04/07 02:35:54;;;;;;;2.1;1.9;;;;;;;9.84;77.08789;93806.77;;;;
2022/04/07 02:36:54;;;;;;;2.1;1.9;;;;;;;9.84;77.08789;93806.77;;;;
2022/04/07 02:37:54;;;;;;;2.3;2;;;;;;;9.86;77.04688;93810.58;;;;
2022/04/07 02:38:59;;;;;;;2.3;2;;;;;;;9.86;77.04688;93810.58;;;;
2022/04/07 02:39:59;;;;;;;2.3;2;;;;;;;9.86;77.04688;93810.58;;;;
2022/04/07 02:41:00;;;;;;;2.3;2;;;;;;;9.86;77.04688;93810.58;;;;
2022/04/07 02:42:00;;;;;;;2.3;2;;;;;;;9.86;77.04688;93810.58;;;;
2022/04/07 02:43:01;;;;;;;2.3;2;;;;;;;9.86;77.04688;93810.58;;;;
2022/04/07 02:44:02;;;;;;;2.3;2;;;;;;;9.86;77.04688;93810.58;;;;
2022/04/07 02:45:03;;;;;;;2.3;2;;;;;;;9.86;77.04688;93810.58;;;;
2022/04/07 02:46:05;;;;;;;2.3;2;;;;;;;9.86;77.04688;93810.58;;;;
2022/04/07 02:47:05;;;;;;;2.3;2;;;;;;;9.86;77.04688;93810.58;;;;
2022/04/07 02:48:06;;;;;;;2.15;1.95;;;;;;;9.87;77.37109;93819.33;;;;
2022/04/07 02:49:06;;;;;;;2.15;1.95;;;;;;;9.87;77.37109;93819.33;;;;
2022/04/07 02:50:07;;;;;;;2.15;1.95;;;;;;;9.87;77.37109;93819.33;;;;
2022/04/07 02:51:08;;;;;;;2.15;1.95;;;;;;;9.87;77.37109;93819.33;;;;
2022/04/07 02:52:09;;;;;;;2.15;1.95;;;;;;;9.87;77.37109;93819.33;;;;
2022/04/07 02:53:10;;;;;;;2.15;1.95;;;;;;;9.87;77.37109;93819.33;;;;
2022/04/07 02:54:11;;;;;;;2.15;1.95;;;;;;;9.87;77.37109;93819.33;;;;
2022/04/07 02:55:12;;;;;;;2.15;1.95;;;;;;;9.87;77.37109;93819.33;;;;
2022/04/07 02:56:12;;;;;;;2.15;1.95;;;;;;;9.87;77.37109;93819.33;;;;
2022/04/07 02:57:13;;;;;;;2.15;1.95;;;;;;;9.87;77.37109;93819.33;;;;
2022/04/07 02:58:13;;;;;;;2.15;1.95;;;;;;;9.87;77.37109;93819.33;;;;
2022/04/07 02:59:13;;;;;;;2.1;2;;;;;;;9.87;77.65723;93814.87;;;;
2022/04/07 03:00:14;;;;;;;2.1;2;;;;;;;9.87;77.65723;93814.87;;;;
2022/04/07 03:01:15;;;;;;;2.1;2;;;;;;;9.87;77.65723;93814.87;;;;
2022/04/07 03:02:16;;;;;;;2.1;2;;;;;;;9.87;77.65723;93814.87;;;;
2022/04/07 03:03:17;;;;;;;2.1;2;;;;;;;9.87;77.65723;93814.87;;;;
2022/04/07 03:04:17;;;;;;;2.1;2;;;;;;;9.87;77.65723;93814.87;;;;
2022/04/07 03:05:18;;;;;;;2.1;2;;;;;;;9.87;77.65723;93814.87;;;;
2022/04/07 03:06:18;;;;;;;2.1;2;;;;;;;9.87;77.65723;93814.87;;;;
2022/04/07 03:07:19;;;;;;;2.1;2;;;;;;;9.87;77.65723;93814.87;;;;
2022/04/07 03:08:21;;;;;;;2.1;2;;;;;;;9.87;77.65723;93814.87;;;;
2022/04/07 03:09:21;;;;;;;1.9;1.8;;;;;;;9.7;78.00195;93807.43;;;;
2022/04/07 03:10:22;;;;;;;1.9;1.8;;;;;;;9.7;78.00195;93807.43;;;;
2022/04/07 03:11:22;;;;;;;1.9;1.8;;;;;;;9.7;78.00195;93807.43;;;;
2022/04/07 03:12:23;;;;;;;1.9;1.8;;;;;;;9.7;78.00195;93807.43;;;;
2022/04/07 03:13:24;;;;;;;1.9;1.8;;;;;;;9.7;78.00195;93807.43;;;;
2022/04/07 03:14:27;;;;;;;1.9;1.8;;;;;;;9.7;78.00195;93807.43;;;;
2022/04/07 03:15:27;;;;;;;1.9;1.8;;;;;;;9.7;78.00195;93807.43;;;;
2022/04/07 03:16:28;;;;;;;1.9;1.8;;;;;;;9.7;78.00195;93807.43;;;;
2022/04/07 03:17:28;;;;;;;1.9;1.8;;;;;;;9.7;78.00195;93807.43;;;;
2022/04/07 03:18:29;;;;;;;1.9;1.8;;;;;;;9.7;78.00195;93807.43;;;;
2022/04/07 03:19:29;;;;;;;1.9;1.8;;;;;;;9.7;78.00195;93807.43;;;;
2022/04/07 03:20:30;;;;;;;1.85;1.75;;;;;;;9.41;78.50586;93794.56;;;;
2022/04/07 03:21:30;;;;;;;1.85;1.75;;;;;;;9.41;78.50586;93794.56;;;;
2022/04/07 03:22:31;;;;;;;1.85;1.75;;;;;;;9.41;78.50586;93794.56;;;;
2022/04/07 03:23:32;;;;;;;1.85;1.75;;;;;;;9.41;78.50586;93794.56;;;;
2022/04/07 03:24:32;;;;;;;1.85;1.75;;;;;;;9.41;78.50586;93794.56;;;;
2022/04/07 03:25:33;;;;;;;1.85;1.75;;;;;;;9.41;78.50586;93794.56;;;;
2022/04/07 03:26:33;;;;;;;1.85;1.75;;;;;;;9.41;78.50586;93794.56;;;;
2022/04/07 03:27:34;;;;;;;1.85;1.75;;;;;;;9.41;78.50586;93794.56;;;;
2022/04/07 03:28:35;;;;;;;1.85;1.75;;;;;;;9.41;78.50586;93794.56;;;;
2022/04/07 03:29:35;;;;;;;1.85;1.75;;;;;;;9.41;78.50586;93794.56;;;;
2022/04/07 03:30:36;;;;;;;1.3;1.2;;;;;;;9.38;78.58398;93797.78;;;;
2022/04/07 03:31:36;;;;;;;1.3;1.2;;;;;;;9.38;78.58398;93797.78;;;;
2022/04/07 03:32:36;;;;;;;1.3;1.2;;;;;;;9.38;78.58398;93797.78;;;;
2022/04/07 03:33:37;;;;;;;1.3;1.2;;;;;;;9.38;78.58398;93797.78;;;;
2022/04/07 03:34:38;;;;;;;1.3;1.2;;;;;;;9.38;78.58398;93797.78;;;;
2022/04/07 03:35:38;;;;;;;1.3;1.2;;;;;;;9.38;78.58398;93797.78;;;;
2022/04/07 03:36:39;;;;;;;1.3;1.2;;;;;;;9.38;78.58398;93797.78;;;;
2022/04/07 03:37:39;;;;;;;1.3;1.2;;;;;;;9.38;78.58398;93797.78;;;;
2022/04/07 03:38:40;;;;;;;1.3;1.2;;;;;;;9.38;78.58398;93797.78;;;;
2022/04/07 03:39:40;;;;;;;1.3;1.2;;;;;;;9.38;78.58398;93797.78;;;;
2022/04/07 03:40:41;;;;;;;1.3;1.2;;;;;;;9.38;78.58398;93797.78;;;;
2022/04/07 03:41:41;;;;;;;1.4;1.3;;;;;;;9.07;78.66699;93799.27;;;;
2022/04/07 03:42:42;;;;;;;1.4;1.3;;;;;;;9.07;78.66699;93799.27;;;;
2022/04/07 03:43:42;;;;;;;1.4;1.3;;;;;;;9.07;78.66699;93799.27;;;;
2022/04/07 03:44:43;;;;;;;1.4;1.3;;;;;;;9.07;78.66699;93799.27;;;;
2022/04/07 03:45:43;;;;;;;1.4;1.3;;;;;;;9.07;78.66699;93799.27;;;;
2022/04/07 03:46:44;;;;;;;1.4;1.3;;;;;;;9.07;78.66699;93799.27;;;;
2022/04/07 03:47:44;;;;;;;1.4;1.3;;;;;;;9.07;78.66699;93799.27;;;;
2022/04/07 03:48:45;;;;;;;1.4;1.3;;;;;;;9.07;78.66699;93799.27;;;;
2022/04/07 03:49:45;;;;;;;1.4;1.3;;;;;;;9.07;78.66699;93799.27;;;;
2022/04/07 03:50:45;;;;;;;1.4;1.3;;;;;;;9.07;78.66699;93799.27;;;;
2022/04/07 03:51:46;;;;;;;1.4;1.3;;;;;;;8.7;79.37695;93784.56;;;;
2022/04/07 03:52:46;;;;;;;1.4;1.3;;;;;;;8.7;79.37695;93784.56;;;;
2022/04/07 03:53:47;;;;;;;1.4;1.3;;;;;;;8.7;79.37695;93784.56;;;;
2022/04/07 03:54:47;;;;;;;1.4;1.3;;;;;;;8.7;79.37695;93784.56;;;;
2022/04/07 03:55:48;;;;;;;1.4;1.3;;;;;;;8.7;79.37695;93784.56;;;;
2022/04/07 03:56:48;;;;;;;1.4;1.3;;;;;;;8.7;79.37695;93784.56;;;;
2022/04/07 03:57:49;;;;;;;1.4;1.3;;;;;;;8.7;79.37695;93784.56;;;;
2022/04/07 03:58:49;;;;;;;1.4;1.3;;;;;;;8.7;79.37695;93784.56;;;;
2022/04/07 03:59:50;;;;;;;1.4;1.3;;;;;;;8.7;79.37695;93784.56;;;;
2022/04/07 04:00:50;;;;;;;1.4;1.3;;;;;;;8.7;79.37695;93784.56;;;;
2022/04/07 04:01:51;;;;;;;1.4;1.3;;;;;;;8.7;79.37695;93784.56;;;;
2022/04/07 04:02:51;;;;;;;1.4;1.3;;;;;;;8.7;79.37695;93784.56;;;;
2022/04/07 04:03:52;;;;;;;1.4;1.3;;;;;;;8.7;79.37695;93784.56;;;;
2022/04/07 04:04:53;;;;;;;1.4;1.3;;;;;;;8.7;79.37695;93784.56;;;;
2022/04/07 04:05:53;;;;;;;1.4;1.3;;;;;;;8.7;79.37695;93784.56;;;;
2022/04/07 04:06:53;;;;;;;1.4;1.3;;;;;;;8.7;79.37695;93784.56;;;;
2022/04/07 04:07:56;;;;;;;1.4;1.3;;;;;;;8.7;79.37695;93784.56;;;;
2022/04/07 04:08:56;;;;;;;1.4;1.3;;;;;;;8.7;79.37695;93784.56;;;;
2022/04/07 04:09:57;;;;;;;1.4;1.3;;;;;;;8.7;79.37695;93784.56;;;;
2022/04/07 04:10:57;;;;;;;1.4;1.3;;;;;;;8.7;79.37695;93784.56;;;;
2022/04/07 04:11:58;;;;;;;1.4;1.3;;;;;;;8.7;79.37695;93784.56;;;;
2022/04/07 04:12:58;;;;;;;1.4;1.3;;;;;;;8.7;79.37695;93784.56;;;;
2022/04/07 04:13:59;;;;;;;1.25;1.15;;;;;;;8.3;80.28125;93797.22;;;;
2022/04/07 04:15:01;;;;;;;1.25;1.15;;;;;;;8.3;80.28125;93797.22;;;;
2022/04/07 04:16:02;;;;;;;1.25;1.15;;;;;;;8.3;80.28125;93797.22;;;;
2022/04/07 04:17:03;;;;;;;1.25;1.15;;;;;;;8.3;80.28125;93797.22;;;;
2022/04/07 04:18:04;;;;;;;1.25;1.15;;;;;;;8.3;80.28125;93797.22;;;;
2022/04/07 04:19:05;;;;;;;1.25;1.15;;;;;;;8.3;80.28125;93797.22;;;;
2022/04/07 04:20:06;;;;;;;1.25;1.15;;;;;;;8.3;80.28125;93797.22;;;;
2022/04/07 04:21:07;;;;;;;1.25;1.15;;;;;;;8.3;80.28125;93797.22;;;;
2022/04/07 04:22:08;;;;;;;1.25;1.15;;;;;;;8.3;80.28125;93797.22;;;;
2022/04/07 04:23:08;;;;;;;1.25;1.15;;;;;;;8.3;80.28125;93797.22;;;;
2022/04/07 04:24:10;;;;;;;1.5;1.3;;;;;;;8.19;80.58887;93807.7;;;;
2022/04/07 04:25:11;;;;;;;1.5;1.3;;;;;;;8.19;80.58887;93807.7;;;;
2022/04/07 04:26:11;;;;;;;1.5;1.3;;;;;;;8.19;80.58887;93807.7;;;;
2022/04/07 04:27:12;;;;;;;1.5;1.3;;;;;;;8.19;80.58887;93807.7;;;;
2022/04/07 04:28:12;;;;;;;1.5;1.3;;;;;;;8.19;80.58887;93807.7;;;;
2022/04/07 04:29:13;;;;;;;1.5;1.3;;;;;;;8.19;80.58887;93807.7;;;;
2022/04/07 04:30:13;;;;;;;1.5;1.3;;;;;;;8.19;80.58887;93807.7;;;;
2022/04/07 04:31:14;;;;;;;1.5;1.3;;;;;;;8.19;80.58887;93807.7;;;;
2022/04/07 04:32:14;;;;;;;1.5;1.3;;;;;;;8.19;80.58887;93807.7;;;;
2022/04/07 04:33:15;;;;;;;1.5;1.3;;;;;;;8.19;80.58887;93807.7;;;;
2022/04/07 04:34:15;;;;;;;1.5;1.3;;;;;;;8.19;80.58887;93807.7;;;;
2022/04/07 04:35:16;;;;;;;1.5;1.25;;;;;;;8.37;80.51758;93802.77;;;;
2022/04/07 04:36:17;;;;;;;1.5;1.25;;;;;;;8.37;80.51758;93802.77;;;;
2022/04/07 04:37:17;;;;;;;1.5;1.25;;;;;;;8.37;80.51758;93802.77;;;;
2022/04/07 04:38:18;;;;;;;1.5;1.25;;;;;;;8.37;80.51758;93802.77;;;;
2022/04/07 04:39:18;;;;;;;1.5;1.25;;;;;;;8.37;80.51758;93802.77;;;;
2022/04/07 04:40:19;;;;;;;1.5;1.25;;;;;;;8.37;80.51758;93802.77;;;;
2022/04/07 04:41:19;;;;;;;1.5;1.25;;;;;;;8.37;80.51758;93802.77;;;;
2022/04/07 04:42:20;;;;;;;1.5;1.25;;;;;;;8.37;80.51758;93802.77;;;;
2022/04/07 04:43:21;;;;;;;1.5;1.25;;;;;;;8.37;80.51758;93802.77;;;;
2022/04/07 04:44:21;;;;;;;1.5;1.25;;;;;;;8.37;80.51758;93802.77;;;;
2022/04/07 04:45:21;;;;;;;3.3;1.6;;;;;;;8.44;79.87109;93801.61;;;;
2022/04/07 04:46:22;;;;;;;3.3;1.6;;;;;;;8.44;79.87109;93801.61;;;;
2022/04/07 04:47:22;;;;;;;3.3;1.6;;;;;;;8.44;79.87109;93801.61;;;;
2022/04/07 04:48:23;;;;;;;3.3;1.6;;;;;;;8.44;79.87109;93801.61;;;;
2022/04/07 04:49:23;;;;;;;3.3;1.6;;;;;;;8.44;79.87109;93801.61;;;;
2022/04/07 04:50:25;;;;;;;3.3;1.6;;;;;;;8.44;79.87109;93801.61;;;;
2022/04/07 04:51:25;;;;;;;3.3;1.6;;;;;;;8.44;79.87109;93801.61;;;;
2022/04/07 04:52:26;;;;;;;3.3;1.6;;;;;;;8.44;79.87109;93801.61;;;;
2022/04/07 04:53:26;;;;;;;3.3;1.6;;;;;;;8.44;79.87109;93801.61;;;;
2022/04/07 04:54:27;;;;;;;3.3;1.6;;;;;;;8.44;79.87109;93801.61;;;;
2022/04/07 04:55:28;;;;;;;3.3;1.6;;;;;;;8.44;79.87109;93801.61;;;;
2022/04/07 04:56:28;;;;;;;3.85;1.3;;;;;;;8.36;80.00391;93788.25;;;;
2022/04/07 04:57:29;;;;;;;3.85;1.3;;;;;;;8.36;80.00391;93788.25;;;;
2022/04/07 04:58:29;;;;;;;3.85;1.3;;;;;;;8.36;80.00391;93788.25;;;;
2022/04/07 04:59:30;;;;;;;3.85;1.3;;;;;;;8.36;80.00391;93788.25;;;;
2022/04/07 05:00:30;;;;;;;3.85;1.3;;;;;;;8.36;80.00391;93788.25;;;;
2022/04/07 05:01:31;;;;;;;3.85;1.3;;;;;;;8.36;80.00391;93788.25;;;;
2022/04/07 05:02:31;;;;;;;3.85;1.3;;;;;;;8.36;80.00391;93788.25;;;;
2022/04/07 05:03:32;;;;;;;3.85;1.3;;;;;;;8.36;80.00391;93788.25;;;;
2022/04/07 05:04:32;;;;;;;3.85;1.3;;;;;;;8.36;80.00391;93788.25;;;;
2022/04/07 05:05:33;;;;;;;3.85;1.3;;;;;;;8.36;80.00391;93788.25;;;;
2022/04/07 05:06:34;;;;;;;3.85;1.3;;;;;;;8.36;80.00391;93788.25;;;;
2022/04/07 05:07:34;;;;;;;2.1;1.6;;;;;;;8.41;79.75977;93786;;;;
2022/04/07 05:08:35;;;;;;;2.1;1.6;;;;;;;8.41;79.75977;93786;;;;
2022/04/07 05:09:37;;;;;;;2.1;1.6;;;;;;;8.41;79.75977;93786;;;;
2022/04/07 05:10:40;;;;;;;2.1;1.6;;;;;;;8.41;79.75977;93786;;;;
2022/04/07 05:11:40;;;;;;;2.1;1.6;;;;;;;8.41;79.75977;93786;;;;
2022/04/07 05:12:41;;;;;;;2.1;1.6;;;;;;;8.41;79.75977;93786;;;;
2022/04/07 05:13:41;;;;;;;2.1;1.6;;;;;;;8.41;79.75977;93786;;;;
2022/04/07 05:14:42;;;;;;;2.1;1.6;;;;;;;8.41;79.75977;93786;;;;
2022/04/07 05:15:42;;;;;;;2.1;1.6;;;;;;;8.41;79.75977;93786;;;;
2022/04/07 05:16:43;;;;;;;2.1;1.6;;;;;;;8.41;79.75977;93786;;;;
2022/04/07 05:17:43;;;;;;;1.4;1.3;;;;;;;8.45;79.27734;93784;;;;
2022/04/07 05:18:49;;;;;;;1.4;1.3;;;;;;;8.45;79.27734;93784;;;;
2022/04/07 05:19:49;;;;;;;1.4;1.3;;;;;;;8.45;79.27734;93784;;;;
2022/04/07 05:20:50;;;;;;;1.4;1.3;;;;;;;8.45;79.27734;93784;;;;
2022/04/07 05:21:51;;;;;;;1.4;1.3;;;;;;;8.45;79.27734;93784;;;;
2022/04/07 05:22:51;;;;;;;1.4;1.3;;;;;;;8.45;79.27734;93784;;;;
2022/04/07 05:23:51;;;;;;;1.4;1.3;;;;;;;8.45;79.27734;93784;;;;
2022/04/07 05:24:52;;;;;;;1.4;1.3;;;;;;;8.45;79.27734;93784;;;;
2022/04/07 05:25:53;;;;;;;1.4;1.3;;;;;;;8.45;79.27734;93784;;;;
2022/04/07 05:26:53;;;;;;;1.4;1.3;;;;;;;8.45;79.27734;93784;;;;
2022/04/07 05:27:53;;;;;;;1.4;1.3;;;;;;;8.45;79.27734;93784;;;;
2022/04/07 05:28:54;;;;;;;1.6;1.5;;;;;;;8.49;79.20996;93774.73;;;;
2022/04/07 05:29:54;;;;;;;1.6;1.5;;;;;;;8.49;79.20996;93774.73;;;;
2022/04/07 05:30:56;;;;;;;1.6;1.5;;;;;;;8.49;79.20996;93774.73;;;;
2022/04/07 05:31:56;;;;;;;1.6;1.5;;;;;;;8.49;79.20996;93774.73;;;;
2022/04/07 05:32:57;;;;;;;1.6;1.5;;;;;;;8.49;79.20996;93774.73;;;;
2022/04/07 05:33:57;;;;;;;1.6;1.5;;;;;;;8.49;79.20996;93774.73;;;;
2022/04/07 05:34:58;;;;;;;1.6;1.5;;;;;;;8.49;79.20996;93774.73;;;;
2022/04/07 05:35:58;;;;;;;1.6;1.5;;;;;;;8.49;79.20996;93774.73;;;;
2022/04/07 05:36:59;;;;;;;1.6;1.5;;;;;;;8.49;79.20996;93774.73;;;;
2022/04/07 05:37:59;;;;;;;1.6;1.5;;;;;;;8.49;79.20996;93774.73;;;;
2022/04/07 05:39:01;;;;;;;1.6;1.5;;;;;;;8.51;79.18164;93778.53;;;;
2022/04/07 05:40:03;;;;;;;1.6;1.5;;;;;;;8.51;79.18164;93778.53;;;;
2022/04/07 05:41:05;;;;;;;1.6;1.5;;;;;;;8.51;79.18164;93778.53;;;;
2022/04/07 05:42:05;;;;;;;1.6;1.5;;;;;;;8.51;79.18164;93778.53;;;;
2022/04/07 05:43:06;;;;;;;1.6;1.5;;;;;;;8.51;79.18164;93778.53;;;;
2022/04/07 05:44:07;;;;;;;1.6;1.5;;;;;;;8.51;79.18164;93778.53;;;;
2022/04/07 05:45:08;;;;;;;1.6;1.5;;;;;;;8.51;79.18164;93778.53;;;;
2022/04/07 05:46:09;;;;;;;1.6;1.5;;;;;;;8.51;79.18164;93778.53;;;;
2022/04/07 05:47:10;;;;;;;1.6;1.5;;;;;;;8.51;79.18164;93778.53;;;;
2022/04/07 05:48:10;;;;;;;1.6;1.5;;;;;;;8.51;79.18164;93778.53;;;;
2022/04/07 05:49:11;;;;;;;1.6;1.5;;;;;;;8.51;79.18164;93778.53;;;;
2022/04/07 05:50:12;;;;;;;1.8;1.7;;;;;;;8.75;79.06641;93766.69;;;;
2022/04/07 05:51:12;;;;;;;1.8;1.7;;;;;;;8.75;79.06641;93766.69;;;;
2022/04/07 05:52:14;;;;;;;1.8;1.7;;;;;;;8.75;79.06641;93766.69;;;;
2022/04/07 05:53:15;;;;;;;1.8;1.7;;;;;;;8.75;79.06641;93766.69;;;;
2022/04/07 05:54:17;;;;;;;1.8;1.7;;;;;;;8.75;79.06641;93766.69;;;;
2022/04/07 05:55:17;;;;;;;1.8;1.7;;;;;;;8.75;79.06641;93766.69;;;;
2022/04/07 05:56:18;;;;;;;1.8;1.7;;;;;;;8.75;79.06641;93766.69;;;;
2022/04/07 05:57:21;;;;;;;1.8;1.7;;;;;;;8.75;79.06641;93766.69;;;;
2022/04/07 05:58:26;;;;;;;1.8;1.7;;;;;;;8.75;79.06641;93766.69;;;;
2022/04/07 05:59:26;;;;;;;1.8;1.7;;;;;;;8.75;79.06641;93766.69;;;;
2022/04/07 06:00:27;;;;;;;1.25;1.15;;;;;;;9.02;78.71094;93742.19;;;;
2022/04/07 06:01:27;;;;;;;1.25;1.15;;;;;;;9.02;78.71094;93742.19;;;;